createdAt,value
2018-10-05T00:00:08.914Z,8.13
2018-10-05T00:02:38.261Z,7.90
2018-10-05T00:05:07.578Z,7.73
2018-10-05T00:07:36.988Z,8.77
2018-10-05T00:10:06.460Z,8.07
2018-10-05T00:12:35.551Z,8.23
2018-10-05T00:15:04.971Z,8.07
2018-10-05T00:17:34.315Z,8.03
2018-10-05T00:20:03.567Z,7.53
2018-10-05T00:22:32.646Z,8.10
2018-10-05T00:25:02.139Z,7.67
2018-10-05T00:27:31.503Z,8.83
2018-10-05T00:30:00.848Z,7.43
2018-10-05T00:32:30.010Z,7.17
2018-10-05T00:34:59.674Z,6.77
2018-10-05T00:37:28.909Z,6.63
2018-10-05T00:39:58.265Z,6.77
2018-10-05T00:42:27.759Z,7.13
2018-10-05T00:44:56.977Z,7.50
2018-10-05T00:47:26.382Z,7.10
2018-10-05T00:49:55.786Z,6.57
2018-10-05T00:52:25.194Z,7.10
2018-10-05T00:54:54.536Z,7.90
2018-10-05T00:57:23.986Z,6.77
2018-10-05T00:59:53.298Z,6.73
2018-10-05T01:02:22.677Z,6.70
2018-10-05T01:04:52.089Z,6.53
2018-10-05T01:07:21.636Z,6.50
2018-10-05T01:09:51.020Z,6.90
2018-10-05T01:12:20.284Z,6.43
2018-10-05T01:14:49.609Z,6.60
2018-10-05T01:17:19.249Z,7.20
2018-10-05T01:19:48.731Z,7.10
2018-10-05T01:22:18.449Z,6.17
2018-10-05T01:24:48.166Z,6.00
2018-10-05T01:27:17.515Z,7.20
2018-10-05T01:29:46.711Z,6.63
2018-10-05T01:32:16.059Z,5.83
2018-10-05T01:34:45.949Z,6.37
2018-10-05T01:37:15.126Z,6.10
2018-10-05T01:39:44.576Z,6.87
2018-10-05T01:42:13.985Z,6.30
2018-10-05T01:44:43.071Z,6.27
2018-10-05T01:47:13.335Z,6.50
2018-10-05T01:49:42.584Z,6.40
2018-10-05T01:52:12.035Z,6.83
2018-10-05T01:54:41.360Z,6.13
2018-10-05T01:57:10.695Z,6.50
2018-10-05T01:59:40.421Z,6.70
2018-10-05T02:02:09.819Z,6.53
2018-10-05T02:04:39.203Z,6.13
2018-10-05T02:07:08.328Z,6.47
2018-10-05T02:09:37.557Z,5.90
2018-10-05T02:12:06.886Z,6.37
2018-10-05T02:14:36.226Z,6.20
2018-10-05T02:17:05.474Z,6.27
2018-10-05T02:19:34.910Z,6.20
2018-10-05T02:22:04.096Z,6.40
2018-10-05T02:24:33.475Z,6.57
2018-10-05T02:27:03.435Z,6.67
2018-10-05T02:29:32.844Z,6.77
2018-10-05T02:32:02.520Z,6.23
2018-10-05T02:34:32.032Z,6.33
2018-10-05T02:37:01.080Z,6.37
2018-10-05T02:39:30.532Z,7.20
2018-10-05T02:42:00.343Z,6.23
2018-10-05T02:44:29.600Z,6.13
2018-10-05T02:46:58.946Z,6.23
2018-10-05T02:49:28.342Z,6.27
2018-10-05T02:51:57.611Z,6.63
2018-10-05T02:54:26.966Z,6.33
2018-10-05T02:56:56.262Z,6.20
2018-10-05T02:59:25.660Z,6.73
2018-10-05T03:02:05.772Z,6.70
2018-10-05T03:04:35.563Z,7.10
2018-10-05T03:07:04.636Z,6.90
2018-10-05T03:09:34.045Z,6.77
2018-10-05T03:12:03.519Z,5.50
2018-10-05T03:14:33.272Z,6.40
2018-10-05T03:17:03.246Z,6.43
2018-10-05T03:19:32.675Z,6.67
2018-10-05T03:22:02.047Z,7.03
2018-10-05T03:24:31.455Z,7.67
2018-10-05T03:27:00.770Z,7.30
2018-10-05T03:29:30.107Z,6.97
2018-10-05T03:31:59.389Z,7.13
2018-10-05T03:34:28.713Z,6.73
2018-10-05T03:36:58.567Z,6.53
2018-10-05T03:39:27.859Z,7.30
2018-10-05T03:41:57.949Z,7.90
2018-10-05T03:44:27.619Z,7.33
2018-10-05T03:46:57.196Z,7.73
2018-10-05T03:49:26.629Z,7.70
2018-10-05T03:51:55.975Z,7.33
2018-10-05T03:54:25.475Z,7.20
2018-10-05T03:56:55.577Z,7.10
2018-10-05T03:59:24.992Z,7.93
2018-10-05T04:01:54.673Z,7.23
2018-10-05T04:04:23.991Z,7.27
2018-10-05T04:06:53.411Z,7.00
2018-10-05T04:09:22.965Z,7.20
2018-10-05T04:11:52.109Z,8.10
2018-10-05T04:14:21.545Z,7.80
2018-10-05T04:16:50.976Z,7.63
2018-10-05T04:19:20.879Z,7.63
2018-10-05T04:21:50.220Z,7.37
2018-10-05T04:24:19.422Z,7.53
2018-10-05T04:26:48.928Z,8.63
2018-10-05T04:29:34.564Z,8.43
2018-10-05T04:32:03.994Z,8.03
2018-10-05T04:34:33.277Z,8.37
2018-10-05T04:37:02.874Z,8.30
2018-10-05T04:39:32.492Z,7.60
2018-10-05T04:42:02.254Z,7.73
2018-10-05T04:44:32.312Z,6.80
2018-10-05T04:47:01.746Z,7.37
2018-10-05T04:49:31.827Z,7.17
2018-10-05T04:52:01.492Z,6.80
2018-10-05T04:54:30.976Z,9.10
2018-10-05T04:57:00.633Z,7.27
2018-10-05T04:59:30.096Z,6.97
2018-10-05T05:01:59.808Z,7.30
2018-10-05T05:04:29.368Z,7.50
2018-10-05T05:06:58.786Z,6.90
2018-10-05T05:09:28.019Z,6.30
2018-10-05T05:11:57.507Z,6.53
2018-10-05T05:14:26.960Z,6.80
2018-10-05T05:16:58.508Z,8.37
2018-10-05T05:19:27.873Z,7.73
2018-10-05T05:21:57.266Z,7.37
2018-10-05T05:24:26.587Z,7.30
2018-10-05T05:27:01.722Z,6.93
2018-10-05T05:29:31.156Z,6.43
2018-10-05T05:32:02.400Z,7.60
2018-10-05T05:34:35.262Z,7.07
2018-10-05T05:37:04.745Z,7.17
2018-10-05T05:39:35.080Z,7.17
2018-10-05T05:42:04.416Z,7.63
2018-10-05T05:44:33.878Z,7.27
2018-10-05T05:47:07.716Z,7.50
2018-10-05T05:49:37.396Z,7.33
2018-10-05T05:52:07.146Z,7.40
2018-10-05T05:54:36.542Z,6.57
2018-10-05T05:57:05.938Z,43.70
2018-10-05T05:59:35.471Z,23.60
2018-10-05T06:02:04.856Z,10.67
2018-10-05T06:04:34.220Z,8.57
2018-10-05T06:07:03.835Z,7.60
2018-10-05T06:09:33.123Z,7.50
2018-10-05T06:12:02.708Z,7.30
2018-10-05T06:14:32.439Z,6.87
2018-10-05T06:17:01.955Z,7.80
2018-10-05T06:19:31.215Z,7.60
2018-10-05T06:22:25.837Z,8.03
2018-10-05T06:24:55.157Z,8.07
2018-10-05T06:27:24.591Z,9.00
2018-10-05T06:29:54.064Z,7.53
2018-10-05T06:32:23.409Z,7.77
2018-10-05T06:34:52.749Z,8.23
2018-10-05T06:37:22.078Z,7.47
2018-10-05T06:39:51.740Z,12.83
2018-10-05T06:42:27.194Z,8.90
2018-10-05T06:44:56.387Z,8.00
2018-10-05T06:47:26.125Z,7.20
2018-10-05T06:49:55.442Z,7.63
2018-10-05T06:52:24.803Z,7.50
2018-10-05T06:54:54.053Z,7.53
2018-10-05T06:57:23.425Z,7.67
2018-10-05T06:59:53.107Z,7.47
2018-10-05T07:02:22.494Z,8.27
2018-10-05T07:04:52.376Z,7.17
2018-10-05T07:07:21.868Z,7.00
2018-10-05T07:09:52.161Z,7.23
2018-10-05T07:12:21.461Z,7.30
2018-10-05T07:14:50.771Z,7.30
2018-10-05T07:17:20.192Z,6.80
2018-10-05T07:19:49.615Z,11.60
2018-10-05T07:22:19.241Z,10.27
2018-10-05T07:24:48.606Z,8.00
2018-10-05T07:27:18.255Z,7.57
2018-10-05T07:29:47.877Z,7.90
2018-10-05T07:32:17.393Z,10.70
2018-10-05T07:34:47.383Z,10.07
2018-10-05T07:37:16.872Z,9.53
2018-10-05T07:39:46.582Z,8.60
2018-10-05T07:42:16.245Z,8.27
2018-10-05T07:44:45.868Z,7.60
2018-10-05T07:47:15.305Z,8.53
2018-10-05T07:49:44.825Z,8.10
2018-10-05T07:52:14.737Z,8.93
2018-10-05T07:54:44.770Z,8.33
2018-10-05T07:57:14.371Z,8.50
2018-10-05T07:59:43.888Z,8.00
2018-10-05T08:02:13.672Z,6.80
2018-10-05T08:04:43.171Z,7.40
2018-10-05T08:07:13.076Z,7.23
2018-10-05T08:09:42.564Z,7.17
2018-10-05T08:12:12.179Z,6.90
2018-10-05T08:14:41.552Z,6.80
2018-10-05T08:17:11.523Z,6.43
2018-10-05T08:19:41.025Z,7.33
2018-10-05T08:22:10.455Z,6.73
2018-10-05T08:24:40.021Z,6.90
2018-10-05T08:27:09.400Z,6.73
2018-10-05T08:29:38.661Z,6.40
2018-10-05T08:32:08.299Z,6.70
2018-10-05T08:34:38.127Z,6.50
2018-10-05T08:37:07.740Z,6.83
2018-10-05T08:39:37.525Z,6.43
2018-10-05T08:42:07.160Z,6.20
2018-10-05T08:44:36.435Z,5.53
2018-10-05T08:47:05.935Z,6.33
2018-10-05T08:49:35.421Z,6.90
2018-10-05T08:52:04.743Z,6.20
2018-10-05T08:54:34.664Z,6.40
2018-10-05T08:57:04.756Z,6.07
2018-10-05T08:59:34.211Z,5.87
2018-10-05T09:02:03.461Z,6.60
2018-10-05T09:04:32.728Z,6.00
2018-10-05T09:07:02.539Z,6.10
2018-10-05T09:09:32.130Z,5.70
2018-10-05T09:12:01.451Z,5.60
2018-10-05T09:14:30.808Z,4.87
2018-10-05T09:17:00.979Z,5.13
2018-10-05T09:19:30.315Z,5.50
2018-10-05T09:21:59.811Z,5.13
2018-10-05T09:24:29.253Z,5.50
2018-10-05T09:26:58.963Z,4.73
2018-10-05T09:29:28.585Z,4.53
2018-10-05T09:31:58.423Z,4.73
2018-10-05T09:34:28.491Z,4.43
2018-10-05T09:36:58.556Z,4.50
2018-10-05T09:39:28.715Z,4.33
2018-10-05T09:41:58.501Z,4.30
2018-10-05T09:44:28.748Z,4.90
2018-10-05T09:46:58.827Z,4.10
2018-10-05T09:49:28.317Z,3.53
2018-10-05T09:51:58.363Z,3.97
2018-10-05T09:54:28.065Z,3.20
2018-10-05T09:56:57.831Z,3.60
2018-10-05T09:59:28.124Z,3.50
2018-10-05T10:02:02.551Z,3.77
2018-10-05T10:04:32.273Z,3.20
2018-10-05T10:07:02.067Z,3.33
2018-10-05T10:09:32.454Z,3.33
2018-10-05T10:12:02.315Z,3.37
2018-10-05T10:14:32.009Z,3.70
2018-10-05T10:17:01.305Z,3.80
2018-10-05T10:19:30.745Z,2.90
2018-10-05T10:22:00.028Z,3.07
2018-10-05T10:24:29.472Z,3.30
2018-10-05T10:26:59.005Z,3.33
2018-10-05T10:29:28.729Z,3.27
2018-10-05T10:31:58.558Z,3.00
2018-10-05T10:34:28.443Z,3.40
2018-10-05T10:36:59.008Z,2.70
2018-10-05T10:39:28.717Z,2.80
2018-10-05T10:41:58.772Z,2.70
2018-10-05T10:44:28.586Z,3.00
2018-10-05T10:46:58.193Z,3.00
2018-10-05T10:49:27.890Z,2.83
2018-10-05T10:51:57.482Z,2.10
2018-10-05T10:54:26.754Z,2.67
2018-10-05T10:56:56.414Z,3.53
2018-10-05T10:59:25.625Z,2.87
2018-10-05T11:01:54.941Z,2.50
2018-10-05T11:04:24.485Z,2.63
2018-10-05T11:06:53.900Z,3.00
2018-10-05T11:09:23.710Z,2.70
2018-10-05T11:11:53.933Z,2.90
2018-10-05T11:14:23.440Z,2.80
2018-10-05T11:16:53.090Z,3.07
2018-10-05T11:19:22.910Z,2.80
2018-10-05T11:21:52.654Z,2.43
2018-10-05T11:24:22.093Z,2.73
2018-10-05T11:26:52.023Z,2.40
2018-10-05T11:29:21.674Z,2.63
2018-10-05T11:31:51.212Z,2.52
2018-10-05T11:34:21.186Z,2.57
2018-10-05T11:36:50.762Z,3.17
2018-10-05T11:39:20.933Z,2.43
2018-10-05T11:41:50.553Z,2.87
2018-10-05T11:44:20.276Z,2.60
2018-10-05T11:46:49.896Z,2.57
2018-10-05T11:49:19.701Z,2.80
2018-10-05T11:51:49.003Z,2.30
2018-10-05T11:54:18.424Z,2.90
2018-10-05T11:56:48.401Z,2.47
2018-10-05T11:59:20.428Z,2.90
2018-10-05T12:02:04.290Z,2.20
2018-10-05T12:04:34.393Z,2.10
2018-10-05T12:07:03.956Z,2.53
2018-10-05T12:09:33.128Z,2.17
2018-10-05T12:12:02.512Z,2.20
2018-10-05T12:14:31.859Z,2.40
2018-10-05T12:17:01.138Z,2.20
2018-10-05T12:19:30.218Z,2.43
2018-10-05T12:21:59.579Z,2.23
2018-10-05T12:24:29.135Z,2.50
2018-10-05T12:26:58.757Z,2.63
2018-10-05T12:29:27.918Z,2.30
2018-10-05T12:31:57.555Z,2.20
2018-10-05T12:34:27.106Z,2.30
2018-10-05T12:36:56.524Z,2.00
2018-10-05T12:39:25.839Z,2.47
2018-10-05T12:41:55.140Z,1.90
2018-10-05T12:44:24.473Z,2.17
2018-10-05T12:46:53.816Z,1.87
2018-10-05T12:49:23.867Z,2.70
2018-10-05T12:51:53.234Z,2.47
2018-10-05T12:54:22.444Z,2.10
2018-10-05T12:56:52.240Z,2.40
2018-10-05T12:59:21.478Z,2.25
2018-10-05T13:01:51.098Z,2.50
2018-10-05T13:04:20.697Z,2.07
2018-10-05T13:06:50.063Z,2.22
2018-10-05T13:09:19.668Z,2.00
2018-10-05T13:11:49.086Z,1.80
2018-10-05T13:14:18.444Z,1.97
2018-10-05T13:16:47.680Z,1.82
2018-10-05T13:19:16.750Z,2.02
2018-10-05T13:21:46.170Z,2.20
2018-10-05T13:24:15.508Z,2.20
2018-10-05T13:26:45.038Z,2.05
2018-10-05T13:29:14.158Z,1.70
2018-10-05T13:31:43.692Z,1.95
2018-10-05T13:34:13.151Z,1.75
2018-10-05T13:36:42.211Z,2.15
2018-10-05T13:39:12.177Z,2.00
2018-10-05T13:41:42.808Z,1.83
2018-10-05T13:44:12.776Z,1.90
2018-10-05T13:46:42.021Z,1.80
2018-10-05T13:49:11.373Z,2.10
2018-10-05T13:51:40.700Z,1.60
2018-10-05T13:54:10.142Z,2.10
2018-10-05T13:56:39.554Z,1.60
2018-10-05T13:59:08.724Z,2.00
2018-10-05T14:01:37.942Z,1.80
2018-10-05T14:04:07.295Z,1.67
2018-10-05T14:06:37.134Z,2.00
2018-10-05T14:09:10.989Z,1.65
2018-10-05T14:11:40.230Z,2.10
2018-10-05T14:14:09.648Z,1.70
2018-10-05T14:16:39.111Z,1.90
2018-10-05T14:22:01.430Z,1.87
2018-10-05T14:24:30.735Z,1.87
2018-10-05T14:27:00.187Z,1.77
2018-10-05T14:29:29.752Z,2.00
2018-10-05T14:31:59.194Z,1.70
2018-10-05T14:34:28.693Z,1.53
2018-10-05T14:36:57.955Z,1.90
2018-10-05T14:39:27.163Z,1.75
2018-10-05T14:41:56.603Z,1.80
2018-10-05T14:44:25.808Z,1.52
2018-10-05T14:46:55.267Z,2.10
2018-10-05T14:49:24.995Z,1.82
2018-10-05T14:51:54.306Z,2.12
2018-10-05T14:54:23.724Z,1.98
2018-10-05T14:56:53.396Z,2.10
2018-10-05T14:59:22.466Z,1.90
2018-10-05T15:01:51.918Z,2.40
2018-10-05T15:04:20.963Z,2.20
2018-10-05T15:06:50.334Z,1.80
2018-10-05T15:09:19.642Z,2.02
2018-10-05T15:11:49.914Z,1.77
2018-10-05T15:14:19.267Z,2.10
2018-10-05T15:16:48.887Z,1.70
2018-10-05T15:19:29.563Z,1.87
2018-10-05T15:21:59.959Z,2.17
2018-10-05T15:24:29.691Z,2.30
2018-10-05T15:26:59.539Z,1.80
2018-10-05T15:29:28.841Z,2.20
2018-10-05T15:31:58.286Z,2.10
2018-10-05T15:34:27.867Z,2.10
2018-10-05T15:36:57.499Z,1.80
2018-10-05T15:39:26.938Z,1.93
2018-10-05T15:41:56.971Z,2.20
2018-10-05T15:46:58.866Z,1.90
2018-10-05T15:49:28.569Z,2.03
2018-10-05T15:51:58.171Z,2.10
2018-10-05T15:54:27.269Z,2.07
2018-10-05T15:56:56.444Z,1.87
2018-10-05T15:59:26.361Z,2.00
2018-10-05T16:01:55.653Z,2.00
2018-10-05T16:04:24.534Z,2.10
2018-10-05T16:06:53.545Z,1.93
2018-10-05T16:09:22.693Z,2.00
2018-10-05T16:11:52.326Z,1.80
2018-10-05T16:14:21.449Z,1.90
2018-10-05T16:16:51.091Z,2.20
2018-10-05T16:19:20.011Z,1.93
2018-10-05T16:21:49.124Z,2.00
2018-10-05T16:24:54.318Z,1.80
2018-10-05T16:27:24.104Z,1.83
2018-10-05T16:29:53.583Z,2.13
2018-10-05T16:32:22.666Z,2.17
2018-10-05T16:34:51.690Z,2.00
2018-10-05T16:37:20.972Z,2.00
2018-10-05T16:39:50.400Z,1.90
2018-10-05T16:42:19.284Z,1.80
2018-10-05T16:44:48.391Z,2.10
2018-10-05T16:47:17.721Z,2.10
2018-10-05T16:49:46.748Z,2.10
2018-10-05T16:52:16.110Z,1.90
2018-10-05T16:54:45.076Z,1.90
2018-10-05T16:57:15.874Z,2.60
2018-10-05T16:59:45.885Z,2.90
2018-10-05T17:02:15.641Z,3.27
2018-10-05T17:04:45.833Z,3.10
2018-10-05T17:07:15.265Z,2.83
2018-10-05T17:09:44.563Z,2.53
2018-10-05T17:12:14.193Z,2.20
2018-10-05T17:14:43.649Z,2.07
2018-10-05T17:17:13.237Z,2.40
2018-10-05T17:19:42.601Z,2.40
2018-10-05T17:22:11.987Z,2.40
2018-10-05T17:24:41.174Z,2.17
2018-10-05T17:27:10.608Z,2.33
2018-10-05T17:29:40.402Z,2.70
2018-10-05T17:32:09.810Z,2.80
2018-10-05T17:34:39.279Z,2.70
2018-10-05T17:37:10.045Z,3.43
2018-10-05T17:39:39.339Z,2.60
2018-10-05T17:42:08.755Z,3.00
2018-10-05T17:44:38.184Z,3.30
2018-10-05T17:47:07.754Z,2.67
2018-10-05T17:49:37.564Z,2.77
2018-10-05T17:52:07.076Z,2.77
2018-10-05T17:54:37.003Z,2.30
2018-10-05T17:57:06.380Z,4.73
2018-10-05T17:59:35.795Z,4.97
2018-10-05T18:02:05.741Z,3.10
2018-10-05T18:04:34.974Z,2.90
2018-10-05T18:07:04.344Z,2.70
2018-10-05T18:09:33.924Z,2.77
2018-10-05T18:12:02.956Z,2.83
2018-10-05T18:14:32.508Z,2.50
2018-10-05T18:17:01.812Z,3.00
2018-10-05T18:19:31.192Z,2.80
2018-10-05T18:22:00.477Z,2.57
2018-10-05T18:24:29.720Z,2.60
2018-10-05T18:27:00.149Z,2.90
2018-10-05T18:29:29.809Z,2.67
2018-10-05T18:31:59.122Z,2.67
2018-10-05T18:34:28.668Z,2.93
2018-10-05T18:36:58.078Z,2.90
2018-10-05T18:39:27.315Z,3.10
2018-10-05T18:41:56.596Z,2.67
2018-10-05T18:44:26.105Z,2.87
2018-10-05T18:46:55.920Z,2.70
2018-10-05T18:49:25.264Z,2.57
2018-10-05T18:51:54.764Z,2.80
2018-10-05T18:54:24.109Z,2.90
2018-10-05T18:57:04.942Z,2.43
2018-10-05T18:59:34.580Z,2.77
2018-10-05T19:02:04.542Z,2.83
2018-10-05T19:04:33.903Z,2.87
2018-10-05T19:07:03.394Z,2.40
2018-10-05T19:09:32.959Z,2.83
2018-10-05T19:12:02.715Z,3.30
2018-10-05T19:14:32.126Z,2.97
2018-10-05T19:17:01.530Z,3.20
2018-10-05T19:19:35.625Z,2.73
2018-10-05T19:22:05.271Z,3.20
2018-10-05T19:24:34.756Z,2.83
2018-10-05T19:27:04.178Z,2.90
2018-10-05T19:29:33.709Z,2.90
2018-10-05T19:32:03.131Z,2.90
2018-10-05T19:34:32.284Z,2.70
2018-10-05T19:37:01.590Z,2.77
2018-10-05T19:39:31.264Z,3.07
2018-10-05T19:42:00.930Z,3.30
2018-10-05T19:44:30.648Z,3.07
2018-10-05T19:47:01.371Z,3.10
2018-10-05T19:49:31.052Z,3.57
2018-10-05T19:52:01.216Z,3.73
2018-10-05T19:54:33.159Z,3.60
2018-10-05T19:57:02.604Z,3.40
2018-10-05T19:59:32.462Z,3.77
2018-10-05T20:02:01.914Z,3.30
2018-10-05T20:04:31.364Z,3.20
2018-10-05T20:07:01.264Z,3.00
2018-10-05T20:09:32.010Z,3.23
2018-10-05T20:12:01.712Z,3.50
2018-10-05T20:14:31.564Z,3.67
2018-10-05T20:17:01.043Z,3.40
2018-10-05T20:19:30.720Z,3.20
2018-10-05T20:22:00.401Z,3.10
2018-10-05T20:24:30.069Z,3.00
2018-10-05T20:27:00.931Z,3.30
2018-10-05T20:29:30.281Z,3.10
2018-10-05T20:32:00.702Z,3.50
2018-10-05T20:34:30.662Z,3.50
2018-10-05T20:37:01.094Z,3.90
2018-10-05T20:39:30.505Z,3.87
2018-10-05T20:41:59.913Z,3.50
2018-10-05T20:44:31.932Z,3.50
2018-10-05T20:47:02.627Z,3.50
2018-10-05T20:49:32.515Z,3.47
2018-10-05T20:52:01.998Z,3.93
2018-10-05T20:54:31.751Z,4.53
2018-10-05T20:57:01.846Z,4.37
2018-10-05T20:59:31.479Z,4.70
2018-10-05T21:02:01.305Z,4.83
2018-10-05T21:04:30.488Z,4.80
2018-10-05T21:07:00.388Z,5.03
2018-10-05T21:09:31.120Z,5.07
2018-10-05T21:12:00.733Z,5.17
2018-10-05T21:14:30.420Z,4.80
2018-10-05T21:17:00.015Z,4.80
2018-10-05T21:19:56.779Z,4.67
2018-10-05T21:22:26.408Z,4.80
2018-10-05T21:25:00.581Z,4.23
2018-10-05T21:27:30.319Z,4.47
2018-10-05T21:30:00.365Z,3.87
2018-10-05T21:32:29.705Z,4.20
2018-10-05T21:34:59.115Z,3.80
2018-10-05T21:37:28.738Z,3.80
2018-10-05T21:39:58.338Z,3.87
2018-10-05T21:42:28.309Z,3.70
2018-10-05T21:44:57.830Z,3.77
2018-10-05T21:47:27.471Z,4.10
2018-10-05T21:49:56.799Z,3.63
2018-10-05T21:52:30.734Z,4.27
2018-10-05T21:55:00.568Z,4.40
2018-10-05T21:57:30.503Z,4.50
2018-10-05T22:00:00.027Z,4.20
2018-10-05T22:02:33.802Z,4.37
2018-10-05T22:05:04.144Z,4.33
2018-10-05T22:07:33.693Z,3.83
2018-10-05T22:10:03.265Z,4.20
2018-10-05T22:12:33.608Z,4.67
2018-10-05T22:15:03.360Z,4.10
2018-10-05T22:17:32.799Z,4.17
2018-10-05T22:20:02.287Z,4.47
2018-10-05T22:22:31.551Z,4.70
2018-10-05T22:25:00.963Z,4.30
2018-10-05T22:27:30.396Z,4.60
2018-10-05T22:29:59.796Z,4.07
2018-10-05T22:32:29.407Z,4.60
2018-10-05T22:34:58.729Z,4.20
2018-10-05T22:37:28.189Z,4.17
2018-10-05T22:40:01.100Z,4.00
2018-10-05T22:42:30.589Z,4.10
2018-10-05T22:44:59.927Z,4.50
2018-10-05T22:47:29.405Z,4.43
2018-10-05T22:49:59.341Z,4.47
2018-10-05T22:52:29.350Z,4.43
2018-10-05T22:54:58.834Z,4.60
2018-10-05T22:57:28.238Z,5.00
2018-10-05T22:59:57.554Z,5.53
2018-10-05T23:02:27.421Z,5.37
2018-10-05T23:04:56.709Z,5.20
2018-10-05T23:07:26.114Z,5.20
2018-10-05T23:09:55.733Z,5.50
2018-10-05T23:12:25.143Z,6.23
2018-10-05T23:14:54.421Z,5.00
2018-10-05T23:17:23.717Z,5.53
2018-10-05T23:19:52.998Z,5.30
2018-10-05T23:22:22.358Z,5.33
2018-10-05T23:24:51.755Z,4.97
2018-10-05T23:27:21.133Z,5.27
2018-10-05T23:29:50.485Z,5.13
2018-10-05T23:32:19.950Z,5.00
2018-10-05T23:34:49.367Z,4.77
2018-10-05T23:37:18.778Z,4.77
2018-10-05T23:39:48.711Z,4.83
2018-10-05T23:42:17.990Z,5.43
2018-10-05T23:44:47.284Z,5.43
2018-10-05T23:47:16.715Z,5.10
2018-10-05T23:49:45.860Z,4.73
2018-10-05T23:52:43.985Z,4.50
2018-10-05T23:55:13.717Z,4.77
2018-10-05T23:57:43.436Z,5.27
